Time;durP1;ratioP1;P1;durP2;ratioP2;P2;SDS_P1;SDS_P2;PMS_P1;PMS_P2;Temp;Humidity;BMP_temperature;BMP_pressure;BME280_temperature;BME280_humidity;BME280_pressure;Samples;Min_cycle;Max_cycle;Signal;HPM_P1;HPM_P2
2022/08/07 06:55:37;;;;;;;;;3.00;3.00;;;;;19.74;42.41;102212.28;2372393;28;68695;-78
2022/08/07 06:56:49;;;;;;;;;3.50;2.25;;;;;19.78;41.77;102219.19;2376730;28;46423;-79
2022/08/07 06:58:03;;;;;;;;;2.00;2.00;;;;;19.83;41.90;102218.09;2383916;28;45197;-79
2022/08/07 06:59:23;;;;;;;;;2.00;2.00;;;;;19.83;41.96;102213.63;2382057;28;46147;-79
2022/08/07 07:00:36;;;;;;;;;2.25;2.00;;;;;19.86;42.06;102216.13;2383258;28;45417;-80
2022/08/07 07:01:48;;;;;;;;;2.00;1.75;;;;;19.89;42.06;102212.47;2374966;28;45226;-81
2022/08/07 07:02:59;;;;;;;;;1.75;1.75;;;;;19.90;42.01;102214.19;2381314;28;45176;-80
2022/08/07 07:04:12;;;;;;;;;2.00;2.00;;;;;19.94;41.89;102205.09;2383751;28;45207;-82
2022/08/07 07:05:22;;;;;;;;;3.00;3.00;;;;;19.98;41.79;102212.00;2384054;28;45223;-83
2022/08/07 07:06:33;;;;;;;;;4.75;3.00;;;;;19.98;41.20;102212.00;2381220;28;47097;-82
2022/08/07 07:07:45;;;;;;;;;3.50;2.00;;;;;20.01;41.54;102221.66;2381802;28;45355;-83
2022/08/07 07:08:55;;;;;;;;;2.00;2.00;;;;;20.01;41.53;102222.53;2384110;28;46309;-81
2022/08/07 07:10:05;;;;;;;;;1.25;1.25;;;;;20.04;41.23;102221.50;2384058;28;44704;-82
2022/08/07 07:11:16;;;;;;;;;3.50;3.00;;;;;20.04;40.79;102225.97;2384081;28;45327;-83
2022/08/07 07:12:36;;;;;;;;;3.25;1.75;;;;;20.04;41.35;102226.84;2383933;28;44789;-83
2022/08/07 07:13:50;;;;;;;;;2.50;2.50;;;;;20.05;41.14;102223.22;2383205;28;45529;-83
2022/08/07 07:15:07;;;;;;;;;3.00;3.00;;;;;20.09;41.33;102223.94;2383278;28;45253;-82
2022/08/07 07:16:22;;;;;;;;;2.50;2.00;;;;;20.12;41.33;102221.16;2382974;28;45475;-87
2022/08/07 07:17:51;;;;;;;;;2.25;2.25;;;;;20.15;41.17;102226.31;2374288;28;45438;-83
2022/08/07 07:19:06;;;;;;;;;2.25;2.25;;;;;20.16;40.96;102219.19;2383633;28;45409;-83
2022/08/07 07:20:42;;;;;;;;;2.25;0.25;;;;;20.19;41.36;102225.25;2383884;28;44675;-83
2022/08/07 07:21:54;;;;;;;;;3.75;2.00;;;;;20.22;41.19;102214.38;2383586;28;46385;-83
2022/08/07 07:23:05;;;;;;;;;2.00;2.00;;;;;20.30;41.24;102222.00;2383447;28;45334;-82
2022/08/07 07:24:16;;;;;;;;;2.75;2.75;;;;;20.33;40.96;102211.19;2374762;28;45458;-82
2022/08/07 07:25:27;;;;;;;;;2.00;2.00;;;;;20.40;41.23;102222.41;2378993;28;45483;-83
2022/08/07 07:26:39;;;;;;;;;1.25;1.25;;;;;20.41;40.55;102208.13;2382179;28;45468;-84
2022/08/07 07:27:57;;;;;;;;;5.00;2.25;;;;;20.43;40.24;102211.56;2369552;28;45462;-83
2022/08/07 07:29:13;;;;;;;;;2.00;2.00;;;;;20.49;40.77;102221.09;2371477;28;45570;-83
2022/08/07 07:30:29;;;;;;;;;2.00;2.00;;;;;20.54;40.98;102213.69;2375631;28;45367;-82
2022/08/07 07:31:47;;;;;;;;;2.50;1.50;;;;;20.57;40.13;102220.66;2376878;28;45442;-84
2022/08/07 07:33:00;;;;;;;;;2.50;1.75;;;;;20.57;40.47;102215.31;2382286;28;45396;-83
2022/08/07 07:34:15;;;;;;;;;1.25;1.00;;;;;20.60;40.47;102207.16;2381991;28;45369;-83
2022/08/07 07:35:27;;;;;;;;;1.00;1.00;;;;;20.64;40.56;102213.22;2373704;28;44806;-83
2022/08/07 07:36:39;;;;;;;;;2.00;2.00;;;;;20.66;40.18;102220.19;2382240;28;46598;-83
2022/08/07 07:37:52;;;;;;;;;2.00;1.50;;;;;20.69;40.07;102221.84;2377948;28;45434;-83
2022/08/07 07:39:04;;;;;;;;;2.00;2.00;;;;;20.70;39.88;102215.53;2376059;28;47019;-83
2022/08/07 07:40:17;;;;;;;;;2.00;1.00;;;;;20.74;39.54;102213.59;2381771;28;45416;-82
2022/08/07 07:41:30;;;;;;;;;2.00;2.00;;;;;20.74;39.46;102211.75;2377218;28;45284;-82
2022/08/07 07:42:43;;;;;;;;;2.25;1.00;;;;;20.79;39.73;102212.38;2381394;28;45422;-81
2022/08/07 07:43:55;;;;;;;;;1.00;1.00;;;;;20.86;39.69;102214.75;2381513;28;47091;-82
2022/08/07 07:45:07;;;;;;;;;1.50;1.00;;;;;20.84;39.81;102206.78;2376742;28;45475;-82
2022/08/07 07:46:18;;;;;;;;;2.25;2.25;;;;;20.85;39.42;102208.53;2382509;28;45460;-82
2022/08/07 07:47:31;;;;;;;;;2.00;1.25;;;;;20.88;39.67;102208.38;2377388;28;45474;-82
2022/08/07 07:48:44;;;;;;;;;2.00;2.00;;;;;20.91;39.38;102207.34;2375523;28;45764;-82
2022/08/07 07:49:56;;;;;;;;;1.50;1.00;;;;;20.91;39.29;102216.19;2382060;28;44822;-83
2022/08/07 07:51:07;;;;;;;;;1.00;1.00;;;;;20.92;39.35;102207.25;2379601;28;45572;-83
2022/08/07 07:52:19;;;;;;;;;1.25;1.00;;;;;20.95;39.15;102206.22;2374411;28;44701;-82
2022/08/07 07:53:31;;;;;;;;;1.50;1.50;;;;;20.98;39.21;102206.06;2375077;28;46748;-82
2022/08/07 07:54:42;;;;;;;;;3.00;1.00;;;;;21.01;39.22;102202.41;2378371;28;45426;-82
2022/08/07 07:55:57;;;;;;;;;2.00;2.00;;;;;21.04;39.25;102210.22;2379407;28;46312;-82
2022/08/07 07:57:09;;;;;;;;;3.00;2.00;;;;;21.07;39.47;102204.72;2375515;28;45311;-83
2022/08/07 07:58:20;;;;;;;;;2.00;1.75;;;;;21.12;38.60;102196.44;2377300;28;46182;-83
2022/08/07 07:59:33;;;;;;;;;3.00;2.00;;;;;21.16;38.67;102205.16;2382396;28;44708;-82
2022/08/07 08:00:45;;;;;;;;;3.00;2.00;;;;;21.16;38.79;102195.34;2382533;28;45342;-82
2022/08/07 08:01:57;;;;;;;;;3.00;2.00;;;;;21.19;38.62;102195.16;2383813;28;45163;-81
2022/08/07 08:03:11;;;;;;;;;3.00;1.00;;;;;21.24;39.06;102200.25;2381551;28;46358;-82
2022/08/07 08:04:25;;;;;;;;;1.00;1.00;;;;;21.29;39.07;102197.31;2373308;28;45679;-82
2022/08/07 08:05:40;;;;;;;;;1.00;1.00;;;;;21.33;38.77;102198.88;2374796;28;46590;-82
2022/08/07 08:06:52;;;;;;;;;1.00;1.00;;;;;21.38;38.60;102198.63;2383506;28;45158;-82
2022/08/07 08:08:03;;;;;;;;;1.25;1.25;;;;;21.40;38.79;102199.41;2383273;28;45420;-81
2022/08/07 08:09:17;;;;;;;;;1.50;1.50;;;;;21.42;38.59;102200.16;2383753;28;45231;-82
2022/08/07 08:10:29;;;;;;;;;1.00;1.00;;;;;21.43;38.50;102193.88;2382050;28;46625;-81
2022/08/07 08:11:41;;;;;;;;;2.00;2.00;;;;;21.47;37.93;102200.78;2380879;28;45405;-82
2022/08/07 08:12:53;;;;;;;;;1.50;1.50;;;;;21.48;37.90;102198.00;2382324;28;46753;-82
2022/08/07 08:14:03;;;;;;;;;1.50;1.50;;;;;21.51;37.56;102196.97;2382579;28;44647;-83
2022/08/07 08:15:14;;;;;;;;;1.75;1.75;;;;;21.52;37.35;102204.06;2382890;28;45257;-83
2022/08/07 08:16:38;;;;;;;;;2.00;2.00;;;;;21.50;37.80;102195.25;2382651;28;45363;-80
2022/08/07 08:17:49;;;;;;;;;1.75;1.75;;;;;21.52;37.97;102188.00;2380747;28;45684;-82
2022/08/07 08:19:02;;;;;;;;;2.00;2.00;;;;;21.55;37.66;102198.53;2375411;28;44757;-82
2022/08/07 08:20:14;;;;;;;;;1.00;1.00;;;;;21.57;38.24;102185.94;2375111;28;45542;-82
2022/08/07 08:27:35;;;;;;;;;1.00;1.00;;;;;21.79;37.41;102176.66;2380972;28;45248;-83
2022/08/07 08:28:48;;;;;;;;;1.00;1.00;;;;;21.84;37.77;102179.06;2378966;28;46348;-82
2022/08/07 08:30:04;;;;;;;;;1.75;1.00;;;;;21.88;37.03;102185.97;2375655;28;45804;-82
2022/08/07 08:31:23;;;;;;;;;2.00;2.00;;;;;21.94;37.37;102184.78;2373536;28;47287;-90
2022/08/07 08:32:40;;;;;;;;;1.00;1.00;;;;;21.96;36.75;102172.16;2372734;28;45374;-82
2022/08/07 08:33:53;;;;;;;;;1.00;1.00;;;;;21.98;36.98;102175.59;2382998;28;46472;-82
2022/08/07 08:35:07;;;;;;;;;1.50;1.50;;;;;21.98;36.75;102172.91;2377772;28;45467;-82
2022/08/07 08:36:19;;;;;;;;;1.75;1.75;;;;;22.04;36.94;102179.72;2384298;28;46676;-82
2022/08/07 08:37:33;;;;;;;;;1.25;1.25;;;;;22.08;37.20;102169.69;2382912;28;45482;-82
2022/08/07 08:38:45;;;;;;;;;2.00;1.50;;;;;22.12;36.87;102173.94;2375669;28;46263;-81
2022/08/07 08:39:56;;;;;;;;;0.00;0.00;;;;;22.17;36.61;102170.97;2381724;28;45174;-82
2022/08/07 08:41:21;;;;;;;;;2.00;2.00;;;;;22.22;36.93;102179.59;2380275;28;47020;-81
2022/08/07 08:42:52;;;;;;;;;0.00;0.00;;;;;22.26;36.70;102171.28;2376744;28;45438;-82
2022/08/07 08:44:18;;;;;;;;;0.00;0.00;;;;;22.32;36.43;102170.03;2384101;28;46603;-82
2022/08/07 08:46:00;;;;;;;;;1.25;1.25;;;;;22.35;34.97;102167.16;2384623;28;44557;-82
2022/08/07 08:47:24;;;;;;;;;2.00;2.00;;;;;22.33;35.92;102166.41;2379986;28;47283;-81
2022/08/07 08:48:43;;;;;;;;;1.00;1.00;;;;;22.37;35.87;102167.09;2381949;28;45375;-82
2022/08/07 08:50:12;;;;;;;;;1.25;1.25;;;;;22.41;35.90;102167.75;2376858;28;46450;-81
2022/08/07 08:51:42;;;;;;;;;2.00;2.00;;;;;22.44;35.60;102163.09;2383600;28;45437;-82
2022/08/07 08:53:02;;;;;;;;;2.00;1.25;;;;;22.48;36.02;102167.28;2381500;28;45383;-82
2022/08/07 08:54:31;;;;;;;;;2.00;1.00;;;;;22.49;35.59;102170.84;2376319;28;45326;-82
2022/08/07 08:56:01;;;;;;;;;1.00;1.00;;;;;22.50;36.07;102161.81;2371504;28;47123;-82
2022/08/07 08:57:24;;;;;;;;;2.50;1.00;;;;;22.49;35.81;102160.94;2370192;28;45515;-83
2022/08/07 08:58:58;;;;;;;;;1.50;1.50;;;;;22.56;35.60;102166.81;2379606;28;45493;-82
2022/08/07 09:00:10;;;;;;;;;1.00;0.50;;;;;22.57;35.49;102165.00;2385176;28;45239;-83
2022/08/07 09:01:25;;;;;;;;;1.00;1.00;;;;;22.58;35.60;102164.03;2384577;28;45371;-82
2022/08/07 09:02:36;;;;;;;;;1.00;1.00;;;;;22.63;35.60;102156.56;2383422;28;45314;-81
2022/08/07 09:03:57;;;;;;;;;1.75;1.75;;;;;22.67;35.38;102166.13;2373890;28;46279;-82
2022/08/07 09:05:33;;;;;;;;;1.00;1.00;;;;;22.71;35.21;102164.16;2379148;28;45336;-82
2022/08/07 09:06:57;;;;;;;;;3.00;2.50;;;;;22.74;34.33;102165.78;2384718;28;46624;-83
2022/08/07 09:08:29;;;;;;;;;2.75;1.00;;;;;22.76;35.39;102161.19;2384525;28;45142;-82
2022/08/07 09:09:53;;;;;;;;;1.00;1.00;;;;;22.77;34.75;102163.78;2383808;28;47302;-82
2022/08/07 09:11:17;;;;;;;;;0.25;0.25;;;;;22.80;34.67;102163.59;2384827;28;44677;-82
2022/08/07 09:12:46;;;;;;;;;1.00;1.00;;;;;22.86;34.90;102169.53;2384835;28;46291;-82
2022/08/07 09:14:13;;;;;;;;;1.25;1.00;;;;;22.88;34.76;102156.88;2385319;28;45176;-82
2022/08/07 09:15:38;;;;;;;;;2.00;1.00;;;;;22.93;35.44;102163.69;2384641;28;45404;-81
2022/08/07 09:17:31;;;;;;;;;1.00;1.00;;;;;22.99;34.84;102164.25;2384067;28;45191;-83
2022/08/07 09:18:53;;;;;;;;;1.25;1.25;;;;;23.02;34.48;102159.53;2320692;29;47387;-82
2022/08/07 09:20:17;;;;;;;;;1.25;1.25;;;;;23.07;34.65;102163.72;2340605;28;44899;-82
2022/08/07 09:21:30;;;;;;;;;0.00;0.00;;;;;23.11;34.83;102158.06;2365660;29;47236;-82
2022/08/07 09:22:56;;;;;;;;;2.00;2.00;;;;;23.13;34.09;102166.91;2370006;28;44655;-83
2022/08/07 09:24:29;;;;;;;;;1.25;1.25;;;;;23.13;34.35;102163.34;2384926;28;45460;-86
2022/08/07 09:25:55;;;;;;;;;0.25;0.25;;;;;23.16;33.68;102163.16;2385027;28;45273;-80
2022/08/07 09:27:23;;;;;;;;;1.00;1.00;;;;;23.20;34.03;102163.81;2375659;28;45509;-83
2022/08/07 09:28:43;;;;;;;;;1.00;1.00;;;;;23.23;34.14;102168.97;2379236;28;45368;-80
2022/08/07 09:29:57;;;;;;;;;1.00;1.00;;;;;23.28;34.41;102161.50;2384224;28;45528;-81
2022/08/07 09:31:31;;;;;;;;;1.00;1.00;;;;;23.29;33.88;102167.69;2383630;28;45266;-81
2022/08/07 09:32:53;;;;;;;;;0.75;0.75;;;;;23.32;33.47;102165.69;2384341;28;46372;-81
2022/08/07 09:34:13;;;;;;;;;3.00;1.00;;;;;23.33;33.51;102169.25;2383613;28;45562;-81
2022/08/07 09:35:42;;;;;;;;;1.25;1.00;;;;;23.36;33.72;102164.53;2369587;28;46925;-81
2022/08/07 09:37:10;;;;;;;;;2.00;2.00;;;;;23.40;33.21;102158.97;2379494;28;45737;-81
2022/08/07 09:38:39;;;;;;;;;1.00;1.00;;;;;23.41;33.74;102156.16;2384004;28;48022;-82
2022/08/07 09:40:14;;;;;;;;;1.00;1.00;;;;;23.42;33.37;102163.28;2384144;28;45249;-82
2022/08/07 09:41:53;;;;;;;;;1.00;1.00;;;;;23.46;34.03;102156.72;2379454;28;46589;-80
2022/08/07 09:43:21;;;;;;;;;1.00;1.00;;;;;23.49;33.54;102158.38;2375630;28;45323;-81
2022/08/07 09:45:03;;;;;;;;;0.00;0.00;;;;;23.44;31.30;102155.09;2373930;28;48062;-81
2022/08/07 09:46:39;;;;;;;;;1.00;1.00;;;;;23.46;32.94;102158.53;2379492;28;44788;-82
2022/08/07 14:06:12;;;;;;;;;2.00;2.00;;;;;26.89;28.27;101938.84;2461822;23;45408;-79
2022/08/07 14:07:27;;;;;;;;;2.00;2.00;;;;;26.89;27.85;101930.75;2386717;28;46444;-79
2022/08/07 14:08:46;;;;;;;;;2.25;2.00;;;;;26.89;26.95;101936.16;2392175;28;45236;-79
2022/08/07 14:09:59;;;;;;;;;3.25;3.00;;;;;26.89;27.16;101936.16;2383508;28;46941;-79
2022/08/07 14:11:13;;;;;;;;;3.00;2.00;;;;;26.90;27.46;101934.31;2387130;28;45246;-79
2022/08/07 14:12:32;;;;;;;;;3.75;3.00;;;;;26.91;27.89;101922.56;2393767;28;45520;-79
2022/08/07 14:13:54;;;;;;;;;3.00;1.00;;;;;26.92;28.34;101935.91;2383636;28;45360;-80
2022/08/07 14:15:08;;;;;;;;;2.25;2.25;;;;;26.93;27.69;101929.53;2392226;28;45466;-79
2022/08/07 14:16:22;;;;;;;;;1.00;1.00;;;;;26.93;28.06;101921.44;2394162;28;44601;-79
2022/08/07 14:17:43;;;;;;;;;2.00;2.00;;;;;26.95;28.17;101926.69;2388442;28;45480;-80
2022/08/07 14:18:55;;;;;;;;;3.00;3.00;;;;;26.95;27.44;101930.25;2383979;28;45438;-79
2022/08/07 14:20:17;;;;;;;;;2.00;2.00;;;;;26.95;27.36;101924.84;2377653;28;46465;-79
2022/08/07 14:21:50;;;;;;;;;3.00;2.00;;;;;26.95;27.61;101930.25;2384552;28;44607;-79
2022/08/07 14:23:10;;;;;;;;;1.00;1.00;;;;;26.95;26.43;101929.38;2389244;28;45496;-79
2022/08/07 14:24:40;;;;;;;;;2.25;2.25;;;;;26.95;27.33;101938.34;2393881;28;45161;-80
2022/08/07 14:26:03;;;;;;;;;2.00;2.00;;;;;26.96;28.32;101923.88;2393845;28;45296;-80
2022/08/07 14:27:20;;;;;;;;;1.00;1.00;;;;;26.97;27.02;101919.31;2383207;28;45361;-80
2022/08/07 14:28:32;;;;;;;;;2.75;2.75;;;;;26.98;28.09;101910.25;2386611;28;46755;-80
2022/08/07 14:29:48;;;;;;;;;3.00;3.00;;;;;26.97;27.41;101912.09;2394113;28;44693;-79
2022/08/07 14:30:59;;;;;;;;;4.00;1.00;;;;;26.98;26.99;101912.94;2393876;28;45212;-80
2022/08/07 14:32:11;;;;;;;;;2.50;2.50;;;;;27.00;27.75;101918.19;2383868;28;45660;-80
2022/08/07 14:33:23;;;;;;;;;0.50;0.50;;;;;27.00;27.01;101926.28;2386779;28;46561;-80
2022/08/07 14:34:40;;;;;;;;;1.00;1.00;;;;;27.00;26.82;101915.50;2393998;28;45251;-80
2022/08/07 14:35:58;;;;;;;;;2.00;2.00;;;;;27.01;26.36;101915.38;2386826;28;47106;-81
2022/08/07 14:37:10;;;;;;;;;3.00;1.00;;;;;27.02;26.63;101917.09;2387755;28;45252;-81
2022/08/07 14:38:24;;;;;;;;;1.25;1.25;;;;;27.04;27.31;101914.28;2383696;28;48575;-80
2022/08/07 14:39:40;;;;;;;;;3.00;3.00;;;;;27.05;28.06;101900.66;2386940;28;44756;-81
2022/08/07 14:41:04;;;;;;;;;3.00;2.00;;;;;27.06;27.92;101905.03;2384514;28;45279;-81
2022/08/07 14:42:23;;;;;;;;;1.50;0.25;;;;;27.07;28.10;101900.50;2374479;28;45431;-81
2022/08/07 14:43:38;;;;;;;;;2.00;2.00;;;;;27.08;26.78;101902.22;2384082;28;46260;-80
2022/08/07 14:44:53;;;;;;;;;2.00;2.00;;;;;27.08;26.17;101905.78;2392747;28;45397;-80
2022/08/07 14:46:06;;;;;;;;;1.25;1.25;;;;;27.07;27.58;101904.06;2393830;28;45921;-80
2022/08/07 14:47:17;;;;;;;;;2.00;2.00;;;;;27.08;27.22;101903.09;2393936;28;45231;-80
2022/08/07 14:48:31;;;;;;;;;2.00;2.00;;;;;27.09;27.13;101903.91;2393656;28;45592;-80
2022/08/07 14:49:44;;;;;;;;;1.75;1.75;;;;;27.12;26.61;101897.44;2393785;28;45338;-80
2022/08/07 14:50:57;;;;;;;;;3.00;2.00;;;;;27.13;27.77;101913.50;2393408;28;46213;-80
2022/08/07 14:52:09;;;;;;;;;2.00;2.00;;;;;27.13;27.52;101891.94;2393717;28;45179;-80
2022/08/07 14:53:22;;;;;;;;;1.25;1.25;;;;;27.14;27.83;101899.00;2383501;28;47564;-80
2022/08/07 14:54:36;;;;;;;;;1.00;1.00;;;;;27.14;27.08;101901.72;2386880;28;45297;-80
2022/08/07 14:55:47;;;;;;;;;2.25;2.25;;;;;27.15;26.47;101903.44;2394233;28;45343;-80
2022/08/07 14:57:01;;;;;;;;;1.50;1.50;;;;;27.15;27.19;101895.34;2385616;28;45173;-80
2022/08/07 14:58:14;;;;;;;;;2.75;2.00;;;;;27.16;26.94;101899.72;2389665;28;46581;-79
2022/08/07 14:59:26;;;;;;;;;2.50;2.50;;;;;27.16;26.41;101904.28;2383568;28;45299;-79
2022/08/07 15:00:39;;;;;;;;;1.00;1.00;;;;;27.15;25.89;101903.44;2386596;28;47513;-80
2022/08/07 15:01:51;;;;;;;;;2.50;2.00;;;;;27.17;26.42;101904.16;2393725;28;44586;-81
2022/08/07 15:03:07;;;;;;;;;2.00;2.00;;;;;27.18;27.54;101903.19;2389194;28;45697;-80
2022/08/07 15:04:21;;;;;;;;;3.25;2.00;;;;;27.21;27.35;101901.19;2382599;28;45289;-80
2022/08/07 15:05:32;;;;;;;;;1.25;1.25;;;;;27.21;26.58;101902.06;2372664;28;47222;-80
2022/08/07 15:06:46;;;;;;;;;2.00;2.00;;;;;27.21;27.43;101893.09;2376806;28;45264;-80
2022/08/07 15:07:57;;;;;;;;;2.00;2.00;;;;;27.22;28.48;101897.50;2375810;28;48508;-81
2022/08/07 15:09:11;;;;;;;;;1.00;1.00;;;;;27.22;27.95;101890.25;2386641;28;45338;-80
2022/08/07 15:10:24;;;;;;;;;1.50;1.50;;;;;27.22;27.00;101897.50;2384582;28;47183;-80
2022/08/07 15:11:40;;;;;;;;;2.00;2.00;;;;;27.20;27.09;101894.94;2377265;28;44689;-80
2022/08/07 15:12:55;;;;;;;;;3.00;2.00;;;;;27.19;27.41;101885.13;2377464;28;47259;-80
2022/08/07 15:14:10;;;;;;;;;4.50;2.50;;;;;27.19;27.33;101894.06;2387648;28;45311;-80
2022/08/07 15:15:29;;;;;;;;;0.00;0.00;;;;;27.20;27.20;101886.84;2393474;28;45270;-80
2022/08/07 15:16:49;;;;;;;;;3.00;3.00;;;;;27.18;27.19;101887.00;2393686;28;44574;-81
2022/08/07 15:18:06;;;;;;;;;1.25;1.25;;;;;27.18;26.71;101887.00;2393367;28;46398;-80
2022/08/07 15:19:18;;;;;;;;;2.00;1.75;;;;;27.19;27.22;101888.69;2387352;28;44655;-80
2022/08/07 15:20:36;;;;;;;;;2.00;1.00;;;;;27.19;26.67;101894.06;2393252;28;46260;-80
2022/08/07 15:21:50;;;;;;;;;2.00;2.00;;;;;27.20;26.80;101886.84;2383337;28;45393;-80
2022/08/07 15:23:02;;;;;;;;;2.00;2.00;;;;;27.21;26.79;101891.25;2386636;28;45371;-81
2022/08/07 15:24:34;;;;;;;;;1.00;1.00;;;;;27.21;26.93;101895.81;2393564;28;45325;-80
2022/08/07 15:25:52;;;;;;;;;1.00;1.00;;;;;27.23;27.08;101891.13;2383293;28;47265;-80
2022/08/07 15:27:11;;;;;;;;;2.00;2.00;;;;;27.25;27.11;101890.00;2376875;28;45260;-81
2022/08/07 15:28:27;;;;;;;;;1.50;1.50;;;;;27.25;27.11;101892.69;2382117;28;45522;-80
2022/08/07 15:29:42;;;;;;;;;3.00;1.00;;;;;27.27;26.80;101879.91;2383560;28;44799;-80
2022/08/07 15:31:05;;;;;;;;;2.00;1.50;;;;;27.29;26.63;101885.19;2384161;28;45452;-80
2022/08/07 15:32:17;;;;;;;;;1.50;1.50;;;;;27.29;26.70;101877.06;2374157;28;45257;-80
2022/08/07 15:33:29;;;;;;;;;2.00;2.00;;;;;27.30;26.74;101887.75;2376862;28;47102;-81
2022/08/07 15:34:44;;;;;;;;;2.00;2.00;;;;;27.33;27.58;101883.94;2382521;28;45168;-81
2022/08/07 15:35:58;;;;;;;;;1.00;1.00;;;;;27.35;26.83;101884.66;2386671;28;46869;-81
2022/08/07 15:37:10;;;;;;;;;1.50;0.50;;;;;27.37;26.60;101890.75;2382805;28;45196;-80
2022/08/07 15:38:27;;;;;;;;;1.00;1.00;;;;;27.41;26.78;101894.03;2386204;28;46412;-81
2022/08/07 15:39:40;;;;;;;;;1.25;1.00;;;;;27.44;26.99;101888.38;2394785;28;45195;-81
2022/08/07 15:40:51;;;;;;;;;1.00;1.00;;;;;27.45;26.97;101889.22;2394424;28;48237;-81
2022/08/07 15:42:03;;;;;;;;;2.75;1.00;;;;;27.46;26.82;101883.69;2385101;28;45258;-81
2022/08/07 15:43:18;;;;;;;;;2.25;1.00;;;;;27.48;27.18;101880.88;2393444;28;48324;-81
2022/08/07 15:44:44;;;;;;;;;2.50;2.00;;;;;27.48;26.17;101880.88;2383012;28;45319;-81
2022/08/07 15:45:57;;;;;;;;;0.00;0.00;;;;;27.47;27.05;101877.31;2391590;28;45362;-80
2022/08/07 15:47:08;;;;;;;;;2.00;2.00;;;;;27.48;26.96;101873.63;2394389;28;45337;-81
2022/08/07 15:48:25;;;;;;;;;3.00;2.00;;;;;27.49;26.61;101877.16;2394706;28;46612;-81
2022/08/07 15:49:37;;;;;;;;;1.25;1.25;;;;;27.48;26.83;101873.63;2385155;28;45369;-80
2022/08/07 15:50:53;;;;;;;;;2.00;2.00;;;;;27.51;26.55;101872.47;2387661;28;45486;-81
2022/08/07 15:52:07;;;;;;;;;2.00;2.00;;;;;27.50;27.43;101865.41;2391807;28;45452;-80
2022/08/07 15:53:29;;;;;;;;;2.00;2.00;;;;;27.51;27.49;101869.78;2392305;28;47172;-80
2022/08/07 15:54:42;;;;;;;;;3.00;3.00;;;;;27.51;26.76;101869.78;2394688;28;45271;-81
2022/08/07 15:55:57;;;;;;;;;2.00;1.50;;;;;27.51;26.35;101880.59;2394950;28;45320;-81
2022/08/07 15:57:13;;;;;;;;;2.75;1.00;;;;;27.49;26.92;101882.56;2395167;28;45294;-81
2022/08/07 15:58:45;;;;;;;;;3.75;2.00;;;;;27.49;27.12;101871.78;2384873;28;48212;-81
2022/08/07 15:59:57;;;;;;;;;1.25;1.25;;;;;27.48;26.27;101872.78;2385016;28;45354;-82
2022/08/07 16:01:16;;;;;;;;;2.50;2.00;;;;;27.49;26.31;101869.94;2387831;28;45336;-81
2022/08/07 16:02:30;;;;;;;;;2.00;2.00;;;;;27.50;27.37;101863.56;2395029;28;44604;-81
2022/08/07 16:03:44;;;;;;;;;1.00;1.00;;;;;27.52;26.98;101866.97;2384610;28;48455;-81
2022/08/07 16:05:00;;;;;;;;;2.00;2.00;;;;;27.53;27.16;101862.44;2388219;28;45380;-81
2022/08/07 16:06:11;;;;;;;;;2.00;2.00;;;;;27.54;27.17;101858.72;2394446;28;46878;-81
2022/08/07 16:07:28;;;;;;;;;1.50;1.50;;;;;27.55;26.90;101865.84;2395229;28;45333;-81
2022/08/07 16:08:45;;;;;;;;;0.00;0.00;;;;;27.54;27.21;101872.22;2395093;28;46307;-81
2022/08/07 16:10:08;;;;;;;;;3.00;1.75;;;;;27.55;26.86;101865.84;2393792;28;45218;-81
2022/08/07 16:11:55;;;;;;;;;2.00;2.00;;;;;27.56;26.56;101862.13;2394832;28;46656;-81
2022/08/07 16:13:43;;;;;;;;;3.25;2.00;;;;;27.56;26.61;101862.13;2357668;28;45248;-80
2022/08/07 16:15:09;;;;;;;;;2.75;2.75;;;;;27.58;27.68;101860.19;2373977;28;48126;-82
2022/08/07 16:16:32;;;;;;;;;2.00;2.00;;;;;27.58;27.62;101865.56;2389409;28;45215;-81
2022/08/07 16:17:43;;;;;;;;;2.00;2.00;;;;;27.57;27.12;101863.84;2394754;28;45404;-81
2022/08/07 16:19:14;;;;;;;;;2.75;2.75;;;;;27.55;26.59;101862.28;2382214;28;44832;-81
2022/08/07 16:20:27;;;;;;;;;4.75;3.25;;;;;27.52;26.82;101872.38;2380267;28;47123;-80
2022/08/07 16:21:52;;;;;;;;;2.00;2.00;;;;;27.50;27.56;101863.56;2381344;28;45316;-82
2022/08/07 16:23:25;;;;;;;;;3.00;3.00;;;;;27.51;26.91;101872.47;2394480;28;45336;-83
2022/08/07 16:24:55;;;;;;;;;1.75;1.75;;;;;27.50;26.90;101863.56;2394696;28;45330;-82
2022/08/07 16:26:09;;;;;;;;;3.50;2.00;;;;;27.51;27.24;101869.78;2394285;28;46593;-81
2022/08/07 16:27:45;;;;;;;;;3.00;2.25;;;;;27.53;26.90;101867.84;2393737;28;44834;-81
2022/08/07 16:29:20;;;;;;;;;3.00;2.75;;;;;27.53;26.87;101857.03;2394034;28;45354;-81
2022/08/07 16:30:37;;;;;;;;;2.00;2.00;;;;;27.53;27.74;101865.13;2382822;28;45566;-82
2022/08/07 16:32:03;;;;;;;;;1.75;1.75;;;;;27.55;27.30;101859.59;2383920;28;46615;-83
2022/08/07 16:33:16;;;;;;;;;1.25;1.25;;;;;27.53;27.22;101867.84;2394838;28;44690;-83
2022/08/07 16:34:38;;;;;;;;;1.75;1.75;;;;;27.50;27.42;101862.69;2384486;28;47474;-82
2022/08/07 16:36:14;;;;;;;;;3.25;2.00;;;;;27.47;27.31;101863.81;2379202;28;44702;-83
2022/08/07 16:37:40;;;;;;;;;2.00;2.00;;;;;27.45;27.50;101864.94;2391053;28;46517;-83
2022/08/07 16:39:14;;;;;;;;;1.75;1.75;;;;;27.42;27.33;101869.63;2384729;28;45252;-81
2022/08/07 16:40:32;;;;;;;;;1.00;1.00;;;;;27.39;27.49;101864.50;2390802;28;46558;-81
2022/08/07 16:41:55;;;;;;;;;2.00;2.00;;;;;27.39;27.21;101866.31;2394951;28;45343;-82
2022/08/07 16:43:27;;;;;;;;;1.50;1.50;;;;;27.36;27.66;101867.44;2384538;28;47885;-82
2022/08/07 16:45:14;;;;;;;;;1.25;1.25;;;;;27.34;26.96;101863.19;2378914;28;45328;-81
2022/08/07 16:46:34;;;;;;;;;2.00;2.00;;;;;27.32;27.27;101855.22;2377985;28;45448;-81
2022/08/07 16:48:20;;;;;;;;;2.75;2.75;;;;;27.32;27.91;101857.06;2384687;28;45214;-82
2022/08/07 16:49:50;;;;;;;;;2.25;2.00;;;;;27.33;27.16;101862.34;2392392;28;45237;-80
2022/08/07 16:51:38;;;;;;;;;1.50;1.50;;;;;27.34;26.93;101850.53;2383298;28;45252;-82
2022/08/07 16:53:20;;;;;;;;;2.00;2.00;;;;;27.34;26.95;101863.19;2392478;28;45627;-82
2022/08/07 16:54:36;;;;;;;;;1.50;1.50;;;;;27.32;26.77;101862.47;2394751;28;45163;-81
2022/08/07 16:56:01;;;;;;;;;1.50;1.50;;;;;27.32;27.17;101857.06;2394663;28;45559;-81
2022/08/07 16:57:15;;;;;;;;;2.00;2.00;;;;;27.33;27.00;101851.56;2394671;28;44631;-81
2022/08/07 16:58:41;;;;;;;;;2.75;2.00;;;;;27.35;27.88;101859.50;2394398;28;46464;-81
2022/08/07 17:00:03;;;;;;;;;3.00;2.75;;;;;27.37;27.68;101857.53;2384452;28;45168;-81
2022/08/07 17:01:26;;;;;;;;;2.75;2.75;;;;;27.36;26.97;101856.66;2383729;28;46564;-81
2022/08/07 17:03:09;;;;;;;;;2.00;2.00;;;;;27.36;27.36;101856.66;2394689;28;44707;-81
2022/08/07 17:04:20;;;;;;;;;3.25;2.00;;;;;27.37;26.59;101862.91;2394235;28;45470;-81
2022/08/07 17:05:43;;;;;;;;;2.50;2.50;;;;;27.36;26.52;101856.66;2394413;28;45199;-81
2022/08/07 17:07:06;;;;;;;;;2.00;1.50;;;;;27.38;26.93;101854.72;2394245;28;45547;-81
2022/08/07 17:08:33;;;;;;;;;0.00;0.00;;;;;27.38;27.03;101852.00;2394633;28;45227;-82
2022/08/07 17:10:04;;;;;;;;;3.00;3.00;;;;;27.40;27.02;101858.13;2383790;28;47064;-80
2022/08/07 17:11:32;;;;;;;;;2.00;2.00;;;;;27.39;27.41;101851.00;2390114;28;45251;-81
2022/08/07 17:12:49;;;;;;;;;2.00;2.00;;;;;27.41;27.21;101848.16;2384204;28;48063;-84
2022/08/07 17:14:05;;;;;;;;;2.25;2.25;;;;;27.42;27.14;101847.19;2385678;28;45289;-82
2022/08/07 17:15:24;;;;;;;;;1.75;1.75;;;;;27.41;26.88;101857.09;2385315;28;46642;-81
2022/08/07 17:16:54;;;;;;;;;1.00;1.00;;;;;27.42;27.32;101852.56;2384429;28;45274;-80
2022/08/07 17:18:11;;;;;;;;;2.75;2.00;;;;;27.42;26.92;101850.72;2374074;28;48134;-80
2022/08/07 17:19:39;;;;;;;;;2.50;2.00;;;;;27.39;27.05;101848.31;2385649;28;44568;-80
2022/08/07 17:20:51;;;;;;;;;3.00;2.00;;;;;27.41;27.05;101853.56;2388722;28;46415;-80
2022/08/07 17:22:09;;;;;;;;;3.00;3.00;;;;;27.41;26.91;101845.44;2387118;28;45438;-81
2022/08/07 17:23:22;;;;;;;;;2.50;2.50;;;;;27.40;27.72;101843.75;2383773;28;48418;-80
2022/08/07 17:24:45;;;;;;;;;3.00;2.25;;;;;27.42;27.13;101849.88;2387653;28;44692;-82
2022/08/07 17:26:02;;;;;;;;;2.25;2.25;;;;;27.40;26.96;101846.47;2394096;28;45290;-81